createdAt,value
2022-11-22T00:01:01.042Z,43.10
2022-11-22T00:11:13.673Z,43.70
2022-11-22T00:16:20.875Z,47.10
2022-11-22T00:26:33.304Z,45.70
2022-11-22T00:31:40.534Z,40.30
2022-11-22T00:41:53.898Z,47.50
2022-11-22T00:47:00.982Z,46.80
2022-11-22T00:52:08.693Z,47.10
2022-11-22T00:57:15.671Z,45.10
2022-11-22T01:02:22.595Z,41.60
2022-11-22T01:07:29.855Z,48.00
2022-11-22T01:12:37.180Z,49.10
2022-11-22T01:22:50.860Z,43.30
2022-11-22T01:27:58.050Z,41.40
2022-11-22T01:33:05.150Z,45.90
2022-11-22T01:38:13.071Z,49.50
2022-11-22T01:43:26.401Z,49.50
2022-11-22T01:48:44.064Z,47.40
2022-11-22T01:53:52.207Z,48.30
2022-11-22T01:59:04.688Z,47.80
2022-11-22T02:04:15.084Z,44.50
2022-11-22T02:09:23.325Z,46.60
2022-11-22T02:14:31.343Z,45.80
2022-11-22T02:19:43.938Z,46.10
2022-11-22T02:24:56.796Z,45.70
2022-11-22T02:30:03.974Z,46.90
2022-11-22T02:40:26.634Z,44.40
2022-11-22T02:56:06.665Z,42.30
2022-11-22T03:01:16.996Z,43.90
2022-11-22T03:06:24.297Z,44.20
2022-11-22T03:16:37.186Z,42.60
2022-11-22T03:26:51.864Z,40.10
2022-11-22T03:32:00.702Z,44.00
2022-11-22T03:37:07.908Z,42.90
2022-11-22T03:47:28.451Z,43.20
2022-11-22T03:57:41.097Z,42.00
2022-11-22T04:07:57.327Z,49.70
2022-11-22T04:13:04.542Z,46.00
2022-11-22T04:23:20.899Z,38.10
2022-11-22T04:28:54.195Z,43.30
2022-11-22T04:33:56.837Z,44.10
2022-11-22T04:39:04.096Z,34.00
2022-11-22T04:49:35.130Z,40.70
2022-11-22T04:54:42.575Z,41.30
2022-11-22T04:59:49.607Z,44.90
2022-11-22T05:04:56.573Z,38.10
2022-11-22T05:10:03.777Z,31.70
2022-11-22T05:20:18.861Z,27.40
2022-11-22T05:25:26.299Z,33.70
2022-11-22T05:30:33.899Z,35.00
2022-11-22T05:35:40.894Z,33.50
2022-11-22T05:40:48.517Z,31.00
2022-11-22T05:45:55.640Z,30.40
2022-11-22T05:51:06.952Z,30.00
2022-11-22T05:56:15.326Z,27.20
2022-11-22T06:01:24.595Z,26.90
2022-11-22T06:06:31.982Z,26.80
2022-11-22T06:11:39.189Z,28.90
2022-11-22T06:16:46.500Z,28.50
2022-11-22T06:21:53.863Z,24.80
2022-11-22T06:27:01.497Z,25.60
2022-11-22T06:32:08.729Z,25.30
2022-11-22T06:42:22.990Z,26.00
2022-11-22T06:52:35.546Z,26.90
2022-11-22T07:01:12.343Z,26.80
2022-11-22T07:06:18.668Z,29.30
2022-11-22T07:11:24.809Z,28.70
2022-11-22T07:16:28.632Z,29.70
2022-11-22T07:21:32.382Z,28.90
2022-11-22T07:26:36.182Z,28.00
2022-11-22T07:31:40.107Z,26.90
2022-11-22T07:36:44.214Z,29.70
2022-11-22T07:41:47.774Z,28.60
2022-11-22T07:46:52.275Z,31.60
2022-11-22T07:51:55.944Z,30.20
2022-11-22T07:56:59.615Z,26.60
2022-11-22T08:02:03.375Z,26.80
2022-11-22T08:07:07.738Z,31.10
2022-11-22T08:12:11.576Z,32.50
2022-11-22T08:27:27.115Z,30.10
2022-11-22T08:32:35.066Z,35.30
2022-11-22T08:37:42.203Z,27.40
2022-11-22T08:42:50.293Z,24.70
2022-11-22T08:48:00.609Z,24.30
2022-11-22T08:58:58.389Z,23.90
2022-11-22T09:04:05.712Z,23.80
2022-11-22T09:09:36.503Z,26.10
2022-11-22T09:14:40.957Z,25.00
2022-11-22T09:19:48.556Z,18.90
2022-11-22T09:24:55.994Z,19.00
2022-11-22T09:30:04.198Z,19.40
2022-11-22T09:35:12.097Z,19.20
2022-11-22T09:40:20.291Z,19.00
2022-11-22T09:45:48.742Z,21.90
2022-11-22T09:51:03.531Z,22.90
2022-11-22T09:56:14.867Z,22.40
2022-11-22T10:01:28.315Z,14.90
2022-11-22T10:06:39.197Z,17.60
2022-11-22T10:11:51.088Z,25.70
2022-11-22T10:17:06.606Z,26.10
2022-11-22T10:22:15.840Z,26.90
2022-11-22T10:27:22.938Z,21.10
2022-11-22T10:32:38.861Z,22.90
2022-11-22T10:37:55.284Z,19.90
2022-11-22T10:43:30.037Z,23.80
2022-11-22T10:48:45.330Z,16.60
2022-11-22T10:54:05.440Z,21.90
2022-11-22T10:59:32.241Z,28.50
2022-11-22T11:04:42.103Z,20.10
2022-11-22T11:15:24.798Z,12.50
2022-11-22T11:20:38.578Z,17.80
2022-11-22T11:25:47.467Z,17.90
2022-11-22T11:30:58.850Z,21.50
2022-11-22T11:36:11.340Z,19.20
2022-11-22T11:41:22.335Z,18.20
2022-11-22T11:46:34.847Z,12.70
2022-11-22T11:51:44.576Z,16.00
2022-11-22T11:56:57.562Z,16.80
2022-11-22T12:02:12.579Z,16.30
2022-11-22T12:07:24.873Z,14.50
2022-11-22T12:12:44.583Z,13.50
2022-11-22T12:17:58.698Z,15.80
2022-11-22T12:23:18.838Z,11.90
2022-11-22T12:28:28.979Z,14.20
2022-11-22T12:33:41.414Z,13.90
2022-11-22T12:38:52.248Z,15.30
2022-11-22T12:44:02.670Z,16.10
2022-11-22T12:49:16.891Z,13.40
2022-11-22T12:54:32.448Z,14.50
2022-11-22T12:59:45.113Z,11.50
2022-11-22T13:04:57.579Z,12.00
2022-11-22T13:10:08.944Z,13.60
2022-11-22T13:15:24.376Z,13.00
2022-11-22T13:20:42.941Z,13.90
2022-11-22T13:26:03.393Z,17.90
2022-11-22T13:31:18.206Z,16.60
2022-11-22T13:36:41.539Z,17.10
2022-11-22T13:42:02.108Z,18.00
2022-11-22T13:47:40.739Z,19.50
2022-11-22T13:52:55.355Z,18.10
2022-11-22T14:03:41.934Z,18.30
2022-11-22T14:08:49.685Z,17.70
2022-11-22T14:14:08.042Z,16.30
2022-11-22T14:19:43.214Z,18.60
2022-11-22T14:25:05.347Z,18.00
2022-11-22T14:30:18.387Z,20.40
2022-11-22T14:35:30.039Z,18.90
2022-11-22T14:40:40.388Z,25.80
2022-11-22T14:45:51.940Z,14.80
2022-11-22T14:51:08.429Z,19.30
2022-11-22T14:56:24.578Z,20.70
2022-11-22T15:02:01.637Z,22.90
2022-11-22T15:09:13.537Z,19.00
2022-11-22T15:13:25.991Z,22.80
2022-11-22T15:57:34.818Z,22.90
2022-11-22T16:02:49.742Z,26.10
2022-11-22T16:07:59.008Z,24.40
2022-11-22T16:13:22.923Z,22.40
2022-11-22T16:18:30.907Z,22.40
2022-11-22T16:23:38.577Z,16.60
2022-11-22T16:28:47.185Z,16.80
2022-11-22T16:33:56.560Z,18.90
2022-11-22T16:39:03.786Z,18.00
2022-11-22T16:49:22.207Z,16.30
2022-11-22T16:54:29.545Z,15.10
2022-11-22T16:59:36.619Z,15.70
2022-11-22T17:04:45.762Z,11.10
2022-11-22T17:09:53.501Z,15.70
2022-11-22T17:15:00.791Z,18.70
2022-11-22T17:25:15.465Z,13.90
2022-11-22T17:30:23.113Z,16.20
2022-11-22T17:35:34.468Z,16.10
2022-11-22T17:40:45.086Z,11.30
2022-11-22T17:45:52.856Z,12.60
2022-11-22T17:51:00.315Z,12.60
2022-11-22T18:01:20.903Z,14.90
2022-11-22T18:06:29.781Z,15.90
2022-11-22T18:11:36.816Z,16.70
2022-11-22T18:16:43.885Z,16.90
2022-11-22T18:21:52.508Z,15.60
2022-11-22T18:27:00.156Z,14.00
2022-11-22T18:32:07.836Z,16.10
2022-11-22T18:37:15.401Z,16.50
2022-11-22T18:42:24.571Z,18.40
2022-11-22T18:47:32.444Z,18.10
2022-11-22T18:52:39.711Z,14.70
2022-11-22T19:02:53.497Z,13.50
2022-11-22T19:08:00.775Z,17.10
2022-11-22T19:13:07.990Z,16.60
2022-11-22T19:23:21.278Z,17.80
2022-11-22T19:28:30.766Z,17.40
2022-11-22T19:33:38.594Z,19.00
2022-11-22T19:38:46.470Z,18.20
2022-11-22T19:43:54.352Z,15.90
2022-11-22T19:49:02.395Z,18.20
2022-11-22T19:54:10.475Z,21.00
2022-11-22T19:59:18.533Z,15.40
2022-11-22T20:04:25.843Z,20.60
2022-11-22T20:09:33.619Z,15.90
2022-11-22T20:14:41.335Z,18.50
2022-11-22T20:19:49.472Z,20.50
2022-11-22T20:24:56.946Z,20.00
2022-11-22T20:30:04.394Z,23.00
2022-11-22T20:35:12.962Z,20.20
2022-11-22T20:40:20.567Z,20.60
2022-11-22T20:45:27.969Z,20.90
2022-11-22T20:50:35.546Z,16.20
2022-11-22T20:55:44.700Z,19.00
2022-11-22T21:00:52.227Z,21.50
2022-11-22T21:05:59.708Z,23.40
2022-11-22T21:11:09.415Z,22.00
2022-11-22T21:16:23.833Z,23.10
2022-11-22T21:21:33.610Z,22.50
2022-11-22T21:26:41.627Z,22.10
2022-11-22T21:31:49.207Z,21.30
2022-11-22T21:36:56.512Z,16.80
2022-11-22T21:47:09.378Z,22.60
2022-11-22T21:52:16.908Z,21.80
2022-11-22T21:57:23.969Z,22.90
2022-11-22T22:02:33.278Z,20.50
2022-11-22T22:07:57.025Z,20.80
2022-11-22T22:13:04.439Z,22.70
2022-11-22T22:18:12.032Z,22.40
2022-11-22T22:23:19.732Z,21.30
2022-11-22T22:28:28.279Z,23.20
2022-11-22T22:33:36.612Z,23.00
2022-11-22T22:38:43.909Z,21.40
2022-11-22T22:43:51.992Z,23.10
2022-11-22T22:49:00.476Z,24.90
2022-11-22T22:54:11.050Z,23.20
2022-11-22T22:59:18.539Z,21.80
2022-11-22T23:04:26.184Z,21.70
2022-11-22T23:09:33.625Z,21.90
2022-11-22T23:14:41.736Z,22.90
2022-11-22T23:19:48.806Z,18.90
2022-11-22T23:24:56.414Z,24.60
2022-11-22T23:35:10.894Z,21.00
2022-11-22T23:40:18.570Z,16.30
2022-11-22T23:45:25.905Z,16.30
2022-11-22T23:50:37.300Z,23.50
2022-11-22T23:55:44.910Z,29.80
